sensor_id;sensor_type;location;lat;lon;timestamp;P1;durP1;ratioP1;P2;durP2;ratioP2
73793;SDS011;62123;52.518;10.528;2022-11-04T00:01:49;5.43;;;1.60;;
73793;SDS011;62123;52.518;10.528;2022-11-04T00:04:16;4.00;;;2.15;;
73793;SDS011;62123;52.518;10.528;2022-11-04T00:06:43;4.50;;;1.75;;
73793;SDS011;62123;52.518;10.528;2022-11-04T00:09:10;4.73;;;2.10;;
73793;SDS011;62123;52.518;10.528;2022-11-04T00:11:37;6.17;;;2.10;;
73793;SDS011;62123;52.518;10.528;2022-11-04T00:14:32;4.75;;;2.10;;
73793;SDS011;62123;52.518;10.528;2022-11-04T00:16:58;4.45;;;1.67;;
73793;SDS011;62123;52.518;10.528;2022-11-04T00:19:42;4.53;;;1.60;;
73793;SDS011;62123;52.518;10.528;2022-11-04T00:22:27;7.55;;;1.73;;
73793;SDS011;62123;52.518;10.528;2022-11-04T00:25:11;6.28;;;2.10;;
73793;SDS011;62123;52.518;10.528;2022-11-04T00:28:05;4.22;;;1.60;;
73793;SDS011;62123;52.518;10.528;2022-11-04T00:30:58;5.70;;;1.73;;
73793;SDS011;62123;52.518;10.528;2022-11-04T00:33:46;5.40;;;1.75;;
73793;SDS011;62123;52.518;10.528;2022-11-04T00:36:13;3.40;;;1.35;;
73793;SDS011;62123;52.518;10.528;2022-11-04T00:38:38;4.57;;;1.93;;
73793;SDS011;62123;52.518;10.528;2022-11-04T00:41:04;4.20;;;1.50;;
73793;SDS011;62123;52.518;10.528;2022-11-04T00:43:49;3.22;;;1.60;;
73793;SDS011;62123;52.518;10.528;2022-11-04T00:46:15;6.10;;;1.50;;
73793;SDS011;62123;52.518;10.528;2022-11-04T00:48:40;4.88;;;1.63;;
73793;SDS011;62123;52.518;10.528;2022-11-04T00:51:05;5.67;;;1.27;;
73793;SDS011;62123;52.518;10.528;2022-11-04T00:53:31;4.67;;;1.90;;
73793;SDS011;62123;52.518;10.528;2022-11-04T00:55:59;4.82;;;1.70;;
73793;SDS011;62123;52.518;10.528;2022-11-04T00:58:26;4.30;;;1.40;;
73793;SDS011;62123;52.518;10.528;2022-11-04T01:00:52;3.42;;;1.30;;
73793;SDS011;62123;52.518;10.528;2022-11-04T01:03:18;4.07;;;1.60;;
73793;SDS011;62123;52.518;10.528;2022-11-04T01:05:43;3.97;;;1.80;;
73793;SDS011;62123;52.518;10.528;2022-11-04T01:08:09;3.70;;;1.38;;
73793;SDS011;62123;52.518;10.528;2022-11-04T01:10:35;3.20;;;1.30;;
73793;SDS011;62123;52.518;10.528;2022-11-04T01:13:08;3.72;;;1.58;;
73793;SDS011;62123;52.518;10.528;2022-11-04T01:15:35;5.20;;;1.83;;
73793;SDS011;62123;52.518;10.528;2022-11-04T01:18:01;4.37;;;1.67;;
73793;SDS011;62123;52.518;10.528;2022-11-04T01:20:26;4.90;;;1.50;;
73793;SDS011;62123;52.518;10.528;2022-11-04T01:22:52;6.03;;;2.00;;
73793;SDS011;62123;52.518;10.528;2022-11-04T01:25:17;4.73;;;1.63;;
73793;SDS011;62123;52.518;10.528;2022-11-04T01:27:43;3.75;;;1.80;;
73793;SDS011;62123;52.518;10.528;2022-11-04T01:30:09;3.97;;;1.37;;
73793;SDS011;62123;52.518;10.528;2022-11-04T01:32:35;5.38;;;2.08;;
73793;SDS011;62123;52.518;10.528;2022-11-04T01:35:00;4.43;;;1.60;;
73793;SDS011;62123;52.518;10.528;2022-11-04T01:37:26;3.97;;;1.90;;
73793;SDS011;62123;52.518;10.528;2022-11-04T01:39:51;5.00;;;1.60;;
73793;SDS011;62123;52.518;10.528;2022-11-04T01:42:19;4.10;;;1.30;;
73793;SDS011;62123;52.518;10.528;2022-11-04T01:44:58;3.83;;;1.60;;
73793;SDS011;62123;52.518;10.528;2022-11-04T01:50:12;3.77;;;1.67;;
73793;SDS011;62123;52.518;10.528;2022-11-04T01:52:56;8.02;;;1.70;;
73793;SDS011;62123;52.518;10.528;2022-11-04T01:55:30;5.18;;;1.60;;
73793;SDS011;62123;52.518;10.528;2022-11-04T01:57:59;3.80;;;1.43;;
73793;SDS011;62123;52.518;10.528;2022-11-04T02:00:27;3.88;;;1.70;;
73793;SDS011;62123;52.518;10.528;2022-11-04T02:02:54;5.57;;;1.60;;
73793;SDS011;62123;52.518;10.528;2022-11-04T02:05:22;5.47;;;2.25;;
73793;SDS011;62123;52.518;10.528;2022-11-04T02:07:48;4.28;;;1.42;;
73793;SDS011;62123;52.518;10.528;2022-11-04T02:10:16;6.03;;;1.47;;
73793;SDS011;62123;52.518;10.528;2022-11-04T02:12:43;4.38;;;1.88;;
73793;SDS011;62123;52.518;10.528;2022-11-04T02:15:20;3.78;;;1.40;;
73793;SDS011;62123;52.518;10.528;2022-11-04T02:18:01;4.27;;;1.40;;
73793;SDS011;62123;52.518;10.528;2022-11-04T02:23:25;3.65;;;1.60;;
73793;SDS011;62123;52.518;10.528;2022-11-04T02:31:37;6.13;;;1.65;;
73793;SDS011;62123;52.518;10.528;2022-11-04T02:34:20;3.88;;;1.48;;
73793;SDS011;62123;52.518;10.528;2022-11-04T02:37:12;4.00;;;1.37;;
73793;SDS011;62123;52.518;10.528;2022-11-04T02:45:52;4.05;;;1.60;;
73793;SDS011;62123;52.518;10.528;2022-11-04T02:48:01;3.73;;;1.43;;
73793;SDS011;62123;52.518;10.528;2022-11-04T02:50:52;2.85;;;1.00;;
73793;SDS011;62123;52.518;10.528;2022-11-04T02:56:07;4.17;;;1.50;;
73793;SDS011;62123;52.518;10.528;2022-11-04T02:58:38;4.07;;;1.60;;
73793;SDS011;62123;52.518;10.528;2022-11-04T03:01:07;3.85;;;1.50;;
73793;SDS011;62123;52.518;10.528;2022-11-04T03:03:39;3.97;;;1.60;;
73793;SDS011;62123;52.518;10.528;2022-11-04T03:06:08;4.67;;;1.30;;
73793;SDS011;62123;52.518;10.528;2022-11-04T03:08:37;3.55;;;1.50;;
73793;SDS011;62123;52.518;10.528;2022-11-04T03:11:10;3.47;;;1.52;;
73793;SDS011;62123;52.518;10.528;2022-11-04T03:13:38;4.60;;;1.67;;
73793;SDS011;62123;52.518;10.528;2022-11-04T03:16:09;4.22;;;1.40;;
73793;SDS011;62123;52.518;10.528;2022-11-04T03:18:43;5.40;;;1.85;;
73793;SDS011;62123;52.518;10.528;2022-11-04T03:21:14;4.60;;;1.90;;
73793;SDS011;62123;52.518;10.528;2022-11-04T03:23:40;4.27;;;2.00;;
73793;SDS011;62123;52.518;10.528;2022-11-04T03:26:28;3.50;;;1.75;;
73793;SDS011;62123;52.518;10.528;2022-11-04T03:34:37;4.25;;;1.23;;
73793;SDS011;62123;52.518;10.528;2022-11-04T03:37:02;3.63;;;1.40;;
73793;SDS011;62123;52.518;10.528;2022-11-04T03:39:28;4.65;;;1.35;;
73793;SDS011;62123;52.518;10.528;2022-11-04T03:41:58;3.50;;;1.20;;
73793;SDS011;62123;52.518;10.528;2022-11-04T03:44:26;4.38;;;1.38;;
73793;SDS011;62123;52.518;10.528;2022-11-04T03:46:53;3.75;;;1.50;;
73793;SDS011;62123;52.518;10.528;2022-11-04T03:49:19;3.20;;;1.60;;
73793;SDS011;62123;52.518;10.528;2022-11-04T03:51:46;3.20;;;1.50;;
73793;SDS011;62123;52.518;10.528;2022-11-04T03:54:12;4.47;;;1.48;;
73793;SDS011;62123;52.518;10.528;2022-11-04T04:02:16;3.28;;;1.17;;
73793;SDS011;62123;52.518;10.528;2022-11-04T04:05:16;3.35;;;1.48;;
73793;SDS011;62123;52.518;10.528;2022-11-04T04:13:16;4.18;;;1.52;;
73793;SDS011;62123;52.518;10.528;2022-11-04T04:15:54;3.78;;;1.92;;
73793;SDS011;62123;52.518;10.528;2022-11-04T04:18:29;4.20;;;1.13;;
73793;SDS011;62123;52.518;10.528;2022-11-04T04:21:05;3.65;;;1.20;;
73793;SDS011;62123;52.518;10.528;2022-11-04T04:23:33;3.70;;;1.55;;
73793;SDS011;62123;52.518;10.528;2022-11-04T04:26:18;3.23;;;1.23;;
73793;SDS011;62123;52.518;10.528;2022-11-04T04:29:24;4.07;;;1.25;;
73793;SDS011;62123;52.518;10.528;2022-11-04T04:31:52;3.55;;;1.10;;
73793;SDS011;62123;52.518;10.528;2022-11-04T04:34:23;3.78;;;1.63;;
73793;SDS011;62123;52.518;10.528;2022-11-04T04:39:30;3.72;;;1.55;;
73793;SDS011;62123;52.518;10.528;2022-11-04T04:42:18;3.50;;;1.52;;
73793;SDS011;62123;52.518;10.528;2022-11-04T04:45:03;3.87;;;1.47;;
73793;SDS011;62123;52.518;10.528;2022-11-04T04:47:40;3.10;;;1.42;;
73793;SDS011;62123;52.518;10.528;2022-11-04T04:50:09;3.58;;;1.35;;
73793;SDS011;62123;52.518;10.528;2022-11-04T04:52:37;3.10;;;1.30;;
73793;SDS011;62123;52.518;10.528;2022-11-04T04:55:04;3.37;;;1.80;;
73793;SDS011;62123;52.518;10.528;2022-11-04T04:57:30;2.58;;;1.15;;
73793;SDS011;62123;52.518;10.528;2022-11-04T04:59:56;3.77;;;1.30;;
73793;SDS011;62123;52.518;10.528;2022-11-04T05:02:21;3.05;;;1.10;;
73793;SDS011;62123;52.518;10.528;2022-11-04T05:04:47;3.17;;;1.27;;
73793;SDS011;62123;52.518;10.528;2022-11-04T05:07:12;3.80;;;1.60;;
73793;SDS011;62123;52.518;10.528;2022-11-04T05:09:38;3.03;;;1.13;;
73793;SDS011;62123;52.518;10.528;2022-11-04T05:12:03;2.73;;;1.20;;
73793;SDS011;62123;52.518;10.528;2022-11-04T05:14:29;3.20;;;1.35;;
73793;SDS011;62123;52.518;10.528;2022-11-04T05:16:55;2.97;;;1.30;;
73793;SDS011;62123;52.518;10.528;2022-11-04T05:19:20;2.90;;;0.87;;
73793;SDS011;62123;52.518;10.528;2022-11-04T05:21:46;2.78;;;1.30;;
73793;SDS011;62123;52.518;10.528;2022-11-04T05:24:11;2.93;;;1.07;;
73793;SDS011;62123;52.518;10.528;2022-11-04T05:26:37;2.53;;;0.70;;
73793;SDS011;62123;52.518;10.528;2022-11-04T05:29:02;3.05;;;1.10;;
73793;SDS011;62123;52.518;10.528;2022-11-04T05:31:28;4.50;;;1.50;;
73793;SDS011;62123;52.518;10.528;2022-11-04T05:33:54;3.03;;;1.17;;
73793;SDS011;62123;52.518;10.528;2022-11-04T05:36:20;3.92;;;1.63;;
73793;SDS011;62123;52.518;10.528;2022-11-04T05:38:49;3.33;;;1.43;;
73793;SDS011;62123;52.518;10.528;2022-11-04T05:41:15;4.18;;;1.02;;
73793;SDS011;62123;52.518;10.528;2022-11-04T05:43:53;4.40;;;1.30;;
73793;SDS011;62123;52.518;10.528;2022-11-04T05:46:20;4.07;;;1.70;;
73793;SDS011;62123;52.518;10.528;2022-11-04T05:48:46;4.22;;;1.10;;
73793;SDS011;62123;52.518;10.528;2022-11-04T05:51:15;5.43;;;1.20;;
73793;SDS011;62123;52.518;10.528;2022-11-04T05:53:44;4.55;;;1.40;;
73793;SDS011;62123;52.518;10.528;2022-11-04T05:56:10;3.50;;;1.20;;
73793;SDS011;62123;52.518;10.528;2022-11-04T05:58:35;3.58;;;1.67;;
73793;SDS011;62123;52.518;10.528;2022-11-04T06:03:49;3.88;;;1.48;;
73793;SDS011;62123;52.518;10.528;2022-11-04T06:06:15;4.63;;;1.47;;
73793;SDS011;62123;52.518;10.528;2022-11-04T06:08:41;5.22;;;1.15;;
73793;SDS011;62123;52.518;10.528;2022-11-04T06:11:06;4.43;;;1.50;;
73793;SDS011;62123;52.518;10.528;2022-11-04T06:13:32;4.20;;;1.40;;
73793;SDS011;62123;52.518;10.528;2022-11-04T06:15:57;5.13;;;1.27;;
73793;SDS011;62123;52.518;10.528;2022-11-04T06:18:23;4.17;;;1.33;;
73793;SDS011;62123;52.518;10.528;2022-11-04T06:20:48;5.90;;;1.60;;
73793;SDS011;62123;52.518;10.528;2022-11-04T06:23:14;7.78;;;1.60;;
73793;SDS011;62123;52.518;10.528;2022-11-04T06:25:39;7.43;;;1.63;;
73793;SDS011;62123;52.518;10.528;2022-11-04T06:28:05;4.63;;;1.40;;
73793;SDS011;62123;52.518;10.528;2022-11-04T06:30:30;5.82;;;1.48;;
73793;SDS011;62123;52.518;10.528;2022-11-04T06:32:56;3.73;;;1.20;;
73793;SDS011;62123;52.518;10.528;2022-11-04T06:35:24;7.25;;;1.88;;
73793;SDS011;62123;52.518;10.528;2022-11-04T06:37:53;4.30;;;1.67;;
73793;SDS011;62123;52.518;10.528;2022-11-04T06:40:19;4.55;;;1.67;;
73793;SDS011;62123;52.518;10.528;2022-11-04T06:42:45;3.80;;;1.20;;
73793;SDS011;62123;52.518;10.528;2022-11-04T06:45:10;3.83;;;1.60;;
73793;SDS011;62123;52.518;10.528;2022-11-04T06:47:36;4.00;;;1.83;;
73793;SDS011;62123;52.518;10.528;2022-11-04T06:50:01;4.23;;;1.57;;
73793;SDS011;62123;52.518;10.528;2022-11-04T06:52:27;3.10;;;1.17;;
73793;SDS011;62123;52.518;10.528;2022-11-04T06:54:52;3.65;;;1.25;;
73793;SDS011;62123;52.518;10.528;2022-11-04T06:57:18;3.70;;;1.67;;
73793;SDS011;62123;52.518;10.528;2022-11-04T06:59:43;4.77;;;1.43;;
73793;SDS011;62123;52.518;10.528;2022-11-04T07:02:09;3.30;;;1.57;;
73793;SDS011;62123;52.518;10.528;2022-11-04T07:04:35;4.10;;;1.77;;
73793;SDS011;62123;52.518;10.528;2022-11-04T07:07:01;2.60;;;1.25;;
73793;SDS011;62123;52.518;10.528;2022-11-04T07:09:47;3.65;;;1.67;;
73793;SDS011;62123;52.518;10.528;2022-11-04T07:12:12;3.10;;;1.50;;
73793;SDS011;62123;52.518;10.528;2022-11-04T07:14:38;4.10;;;1.87;;
73793;SDS011;62123;52.518;10.528;2022-11-04T07:17:04;5.00;;;1.35;;
73793;SDS011;62123;52.518;10.528;2022-11-04T07:19:29;5.57;;;1.50;;
73793;SDS011;62123;52.518;10.528;2022-11-04T07:21:55;3.77;;;1.10;;
73793;SDS011;62123;52.518;10.528;2022-11-04T07:24:21;3.67;;;1.20;;
73793;SDS011;62123;52.518;10.528;2022-11-04T07:26:47;4.22;;;1.48;;
73793;SDS011;62123;52.518;10.528;2022-11-04T07:29:13;3.90;;;0.90;;
73793;SDS011;62123;52.518;10.528;2022-11-04T07:31:38;2.72;;;0.90;;
73793;SDS011;62123;52.518;10.528;2022-11-04T07:34:04;2.87;;;1.10;;
73793;SDS011;62123;52.518;10.528;2022-11-04T07:36:30;2.97;;;1.02;;
73793;SDS011;62123;52.518;10.528;2022-11-04T07:38:56;2.47;;;1.00;;
73793;SDS011;62123;52.518;10.528;2022-11-04T07:41:21;3.78;;;1.20;;
73793;SDS011;62123;52.518;10.528;2022-11-04T07:43:48;2.83;;;1.40;;
73793;SDS011;62123;52.518;10.528;2022-11-04T07:46:17;2.88;;;0.93;;
73793;SDS011;62123;52.518;10.528;2022-11-04T07:48:44;2.08;;;0.70;;
73793;SDS011;62123;52.518;10.528;2022-11-04T07:51:10;2.42;;;0.70;;
73793;SDS011;62123;52.518;10.528;2022-11-04T07:53:37;2.80;;;1.00;;
73793;SDS011;62123;52.518;10.528;2022-11-04T07:56:04;2.28;;;0.95;;
73793;SDS011;62123;52.518;10.528;2022-11-04T07:58:50;3.03;;;1.20;;
73793;SDS011;62123;52.518;10.528;2022-11-04T08:01:17;2.77;;;0.67;;
73793;SDS011;62123;52.518;10.528;2022-11-04T08:03:44;2.42;;;0.80;;
73793;SDS011;62123;52.518;10.528;2022-11-04T08:06:11;2.10;;;0.87;;
73793;SDS011;62123;52.518;10.528;2022-11-04T08:08:37;2.63;;;1.30;;
73793;SDS011;62123;52.518;10.528;2022-11-04T08:11:07;2.50;;;0.90;;
73793;SDS011;62123;52.518;10.528;2022-11-04T08:13:36;3.15;;;0.80;;
73793;SDS011;62123;52.518;10.528;2022-11-04T08:16:03;2.50;;;1.00;;
73793;SDS011;62123;52.518;10.528;2022-11-04T08:18:30;2.30;;;0.90;;
73793;SDS011;62123;52.518;10.528;2022-11-04T08:20:56;1.90;;;0.63;;
73793;SDS011;62123;52.518;10.528;2022-11-04T08:23:22;2.90;;;1.00;;
73793;SDS011;62123;52.518;10.528;2022-11-04T08:25:48;2.30;;;0.67;;
73793;SDS011;62123;52.518;10.528;2022-11-04T08:28:13;4.05;;;0.75;;
73793;SDS011;62123;52.518;10.528;2022-11-04T08:33:27;2.05;;;0.90;;
73793;SDS011;62123;52.518;10.528;2022-11-04T08:35:54;2.42;;;0.80;;
73793;SDS011;62123;52.518;10.528;2022-11-04T08:38:23;2.97;;;0.77;;
73793;SDS011;62123;52.518;10.528;2022-11-04T08:40:49;3.07;;;0.63;;
73793;SDS011;62123;52.518;10.528;2022-11-04T08:43:15;2.70;;;0.68;;
73793;SDS011;62123;52.518;10.528;2022-11-04T08:45:41;1.90;;;0.73;;
73793;SDS011;62123;52.518;10.528;2022-11-04T08:48:08;2.22;;;0.70;;
73793;SDS011;62123;52.518;10.528;2022-11-04T08:50:34;2.33;;;0.83;;
73793;SDS011;62123;52.518;10.528;2022-11-04T08:52:59;2.25;;;0.95;;
73793;SDS011;62123;52.518;10.528;2022-11-04T08:55:27;3.03;;;0.50;;
73793;SDS011;62123;52.518;10.528;2022-11-04T08:57:53;1.90;;;0.73;;
73793;SDS011;62123;52.518;10.528;2022-11-04T09:00:18;1.80;;;0.80;;
73793;SDS011;62123;52.518;10.528;2022-11-04T09:02:45;2.15;;;0.60;;
73793;SDS011;62123;52.518;10.528;2022-11-04T09:05:11;2.17;;;0.80;;
73793;SDS011;62123;52.518;10.528;2022-11-04T09:07:39;1.63;;;0.60;;
73793;SDS011;62123;52.518;10.528;2022-11-04T09:10:05;2.00;;;0.80;;
73793;SDS011;62123;52.518;10.528;2022-11-04T09:12:31;2.30;;;0.90;;
73793;SDS011;62123;52.518;10.528;2022-11-04T09:14:57;2.60;;;0.82;;
73793;SDS011;62123;52.518;10.528;2022-11-04T09:17:22;2.03;;;0.63;;
73793;SDS011;62123;52.518;10.528;2022-11-04T09:19:48;2.43;;;0.90;;
73793;SDS011;62123;52.518;10.528;2022-11-04T09:22:14;2.63;;;0.90;;
73793;SDS011;62123;52.518;10.528;2022-11-04T09:24:39;2.10;;;1.00;;
73793;SDS011;62123;52.518;10.528;2022-11-04T09:27:05;2.92;;;0.68;;
73793;SDS011;62123;52.518;10.528;2022-11-04T09:29:30;2.20;;;0.70;;
73793;SDS011;62123;52.518;10.528;2022-11-04T09:31:58;1.60;;;0.52;;
73793;SDS011;62123;52.518;10.528;2022-11-04T09:34:24;2.50;;;1.00;;
73793;SDS011;62123;52.518;10.528;2022-11-04T09:36:49;2.10;;;0.90;;
73793;SDS011;62123;52.518;10.528;2022-11-04T09:39:15;2.20;;;1.13;;
73793;SDS011;62123;52.518;10.528;2022-11-04T09:47:13;1.83;;;0.83;;
73793;SDS011;62123;52.518;10.528;2022-11-04T09:49:39;3.83;;;0.85;;
73793;SDS011;62123;52.518;10.528;2022-11-04T09:52:17;1.60;;;0.40;;
73793;SDS011;62123;52.518;10.528;2022-11-04T09:57:19;4.25;;;1.35;;
73793;SDS011;62123;52.518;10.528;2022-11-04T09:59:44;8.97;;;1.93;;
73793;SDS011;62123;52.518;10.528;2022-11-04T10:02:20;4.50;;;1.30;;
73793;SDS011;62123;52.518;10.528;2022-11-04T10:24:00;5.22;;;1.80;;
73793;SDS011;62123;52.518;10.528;2022-11-04T10:26:36;4.47;;;2.10;;
73793;SDS011;62123;52.518;10.528;2022-11-04T10:29:15;5.03;;;2.20;;
73793;SDS011;62123;52.518;10.528;2022-11-04T10:31:47;4.95;;;2.20;;
73793;SDS011;62123;52.518;10.528;2022-11-04T10:34:34;4.53;;;1.90;;
73793;SDS011;62123;52.518;10.528;2022-11-04T10:37:02;4.82;;;2.00;;
73793;SDS011;62123;52.518;10.528;2022-11-04T10:39:29;5.28;;;1.50;;
73793;SDS011;62123;52.518;10.528;2022-11-04T10:41:58;5.13;;;1.60;;
73793;SDS011;62123;52.518;10.528;2022-11-04T10:44:46;4.35;;;1.40;;
73793;SDS011;62123;52.518;10.528;2022-11-04T10:52:23;9.45;;;2.97;;
73793;SDS011;62123;52.518;10.528;2022-11-04T10:54:49;6.15;;;2.10;;
73793;SDS011;62123;52.518;10.528;2022-11-04T10:57:19;6.30;;;2.13;;
73793;SDS011;62123;52.518;10.528;2022-11-04T11:02:18;4.68;;;1.67;;
73793;SDS011;62123;52.518;10.528;2022-11-04T11:07:42;5.55;;;1.73;;
73793;SDS011;62123;52.518;10.528;2022-11-04T11:10:25;5.30;;;2.05;;
73793;SDS011;62123;52.518;10.528;2022-11-04T11:20:32;5.60;;;2.35;;
73793;SDS011;62123;52.518;10.528;2022-11-04T11:23:01;4.57;;;1.50;;
73793;SDS011;62123;52.518;10.528;2022-11-04T11:25:29;5.40;;;1.40;;
73793;SDS011;62123;52.518;10.528;2022-11-04T11:30:33;4.43;;;1.47;;
73793;SDS011;62123;52.518;10.528;2022-11-04T11:33:14;6.20;;;1.90;;
73793;SDS011;62123;52.518;10.528;2022-11-04T11:35:53;4.88;;;1.90;;
73793;SDS011;62123;52.518;10.528;2022-11-04T11:38:50;6.50;;;1.77;;
73793;SDS011;62123;52.518;10.528;2022-11-04T11:41:28;4.87;;;1.63;;
73793;SDS011;62123;52.518;10.528;2022-11-04T11:43:59;4.10;;;1.88;;
73793;SDS011;62123;52.518;10.528;2022-11-04T11:46:28;4.60;;;1.73;;
73793;SDS011;62123;52.518;10.528;2022-11-04T11:48:56;4.03;;;1.57;;
73793;SDS011;62123;52.518;10.528;2022-11-04T11:51:26;4.60;;;1.50;;
73793;SDS011;62123;52.518;10.528;2022-11-04T11:54:00;4.75;;;2.20;;
73793;SDS011;62123;52.518;10.528;2022-11-04T11:56:31;3.95;;;1.23;;
73793;SDS011;62123;52.518;10.528;2022-11-04T11:59:06;5.60;;;1.20;;
73793;SDS011;62123;52.518;10.528;2022-11-04T12:01:41;5.47;;;1.70;;
73793;SDS011;62123;52.518;10.528;2022-11-04T12:04:10;4.05;;;1.45;;
73793;SDS011;62123;52.518;10.528;2022-11-04T12:12:21;4.33;;;1.57;;
73793;SDS011;62123;52.518;10.528;2022-11-04T12:15:16;3.65;;;1.25;;
73793;SDS011;62123;52.518;10.528;2022-11-04T12:32:02;5.95;;;1.52;;
73793;SDS011;62123;52.518;10.528;2022-11-04T12:34:48;3.42;;;1.10;;
73793;SDS011;62123;52.518;10.528;2022-11-04T12:43:08;3.38;;;1.27;;
73793;SDS011;62123;52.518;10.528;2022-11-04T12:45:47;3.38;;;1.35;;
73793;SDS011;62123;52.518;10.528;2022-11-04T12:53:26;3.50;;;1.10;;
73793;SDS011;62123;52.518;10.528;2022-11-04T13:01:36;3.17;;;1.00;;
73793;SDS011;62123;52.518;10.528;2022-11-04T13:04:09;3.97;;;1.33;;
73793;SDS011;62123;52.518;10.528;2022-11-04T13:06:47;3.03;;;1.17;;
73793;SDS011;62123;52.518;10.528;2022-11-04T13:09:33;3.50;;;0.80;;
73793;SDS011;62123;52.518;10.528;2022-11-04T13:12:20;2.60;;;1.00;;
73793;SDS011;62123;52.518;10.528;2022-11-04T13:17:18;3.00;;;0.83;;
73793;SDS011;62123;52.518;10.528;2022-11-04T13:19:49;2.42;;;1.08;;
73793;SDS011;62123;52.518;10.528;2022-11-04T13:22:17;2.78;;;1.15;;
73793;SDS011;62123;52.518;10.528;2022-11-04T13:24:54;2.47;;;0.80;;
73793;SDS011;62123;52.518;10.528;2022-11-04T13:27:38;2.58;;;0.77;;
73793;SDS011;62123;52.518;10.528;2022-11-04T13:38:07;2.85;;;0.93;;
73793;SDS011;62123;52.518;10.528;2022-11-04T13:46:04;3.30;;;0.75;;
73793;SDS011;62123;52.518;10.528;2022-11-04T13:48:49;2.00;;;0.88;;
73793;SDS011;62123;52.518;10.528;2022-11-04T13:51:19;2.92;;;1.35;;
73793;SDS011;62123;52.518;10.528;2022-11-04T13:53:49;3.50;;;1.23;;
73793;SDS011;62123;52.518;10.528;2022-11-04T14:01:41;3.38;;;1.27;;
73793;SDS011;62123;52.518;10.528;2022-11-04T14:06:52;3.53;;;1.15;;
73793;SDS011;62123;52.518;10.528;2022-11-04T14:14:47;2.45;;;1.15;;
73793;SDS011;62123;52.518;10.528;2022-11-04T14:19:58;2.92;;;1.17;;
73793;SDS011;62123;52.518;10.528;2022-11-04T14:22:29;2.45;;;1.13;;
73793;SDS011;62123;52.518;10.528;2022-11-04T14:30:49;4.10;;;1.08;;
73793;SDS011;62123;52.518;10.528;2022-11-04T14:33:25;2.10;;;0.85;;
73793;SDS011;62123;52.518;10.528;2022-11-04T14:35:56;2.90;;;1.20;;
73793;SDS011;62123;52.518;10.528;2022-11-04T14:38:41;3.75;;;1.45;;
73793;SDS011;62123;52.518;10.528;2022-11-04T14:41:22;2.80;;;1.10;;
73793;SDS011;62123;52.518;10.528;2022-11-04T14:43:53;3.55;;;1.40;;
73793;SDS011;62123;52.518;10.528;2022-11-04T14:46:30;2.23;;;0.87;;
73793;SDS011;62123;52.518;10.528;2022-11-04T14:48:58;2.70;;;1.27;;
73793;SDS011;62123;52.518;10.528;2022-11-04T14:53:53;4.97;;;1.67;;
73793;SDS011;62123;52.518;10.528;2022-11-04T14:56:24;10.45;;;2.08;;
73793;SDS011;62123;52.518;10.528;2022-11-04T15:01:35;4.90;;;1.73;;
73793;SDS011;62123;52.518;10.528;2022-11-04T15:06:38;6.57;;;1.88;;
73793;SDS011;62123;52.518;10.528;2022-11-04T15:09:16;4.93;;;2.17;;
73793;SDS011;62123;52.518;10.528;2022-11-04T15:11:44;6.88;;;1.52;;
73793;SDS011;62123;52.518;10.528;2022-11-04T15:14:28;7.70;;;1.63;;
73793;SDS011;62123;52.518;10.528;2022-11-04T15:16:54;6.83;;;1.70;;
73793;SDS011;62123;52.518;10.528;2022-11-04T15:19:39;5.82;;;1.90;;
73793;SDS011;62123;52.518;10.528;2022-11-04T15:22:10;5.25;;;2.00;;
73793;SDS011;62123;52.518;10.528;2022-11-04T15:24:37;4.47;;;2.20;;
73793;SDS011;62123;52.518;10.528;2022-11-04T15:27:06;3.85;;;1.80;;
73793;SDS011;62123;52.518;10.528;2022-11-04T15:29:37;4.57;;;1.98;;
73793;SDS011;62123;52.518;10.528;2022-11-04T15:32:03;4.17;;;1.47;;
73793;SDS011;62123;52.518;10.528;2022-11-04T15:34:29;3.72;;;1.45;;
73793;SDS011;62123;52.518;10.528;2022-11-04T15:37:00;7.90;;;1.87;;
73793;SDS011;62123;52.518;10.528;2022-11-04T15:42:10;5.03;;;1.65;;
73793;SDS011;62123;52.518;10.528;2022-11-04T15:44:57;10.70;;;2.10;;
73793;SDS011;62123;52.518;10.528;2022-11-04T15:47:24;6.57;;;2.37;;
73793;SDS011;62123;52.518;10.528;2022-11-04T15:49:52;5.97;;;2.22;;
73793;SDS011;62123;52.518;10.528;2022-11-04T15:52:22;9.57;;;2.20;;
73793;SDS011;62123;52.518;10.528;2022-11-04T15:54:50;6.50;;;1.90;;
73793;SDS011;62123;52.518;10.528;2022-11-04T15:57:18;9.23;;;2.53;;
73793;SDS011;62123;52.518;10.528;2022-11-04T15:59:51;9.10;;;1.55;;
73793;SDS011;62123;52.518;10.528;2022-11-04T16:02:24;5.87;;;1.67;;
73793;SDS011;62123;52.518;10.528;2022-11-04T16:07:39;5.70;;;2.17;;
73793;SDS011;62123;52.518;10.528;2022-11-04T16:18:21;4.45;;;2.28;;
73793;SDS011;62123;52.518;10.528;2022-11-04T16:20:53;5.10;;;1.53;;
73793;SDS011;62123;52.518;10.528;2022-11-04T16:23:22;5.60;;;1.50;;
73793;SDS011;62123;52.518;10.528;2022-11-04T16:28:30;6.03;;;2.07;;
73793;SDS011;62123;52.518;10.528;2022-11-04T16:31:03;4.78;;;1.85;;
73793;SDS011;62123;52.518;10.528;2022-11-04T16:33:31;5.18;;;1.95;;
73793;SDS011;62123;52.518;10.528;2022-11-04T16:35:56;5.70;;;1.87;;
73793;SDS011;62123;52.518;10.528;2022-11-04T16:38:22;4.80;;;1.77;;
73793;SDS011;62123;52.518;10.528;2022-11-04T16:40:47;5.82;;;2.30;;
73793;SDS011;62123;52.518;10.528;2022-11-04T16:43:13;7.10;;;1.90;;
73793;SDS011;62123;52.518;10.528;2022-11-04T16:45:43;7.50;;;1.90;;
73793;SDS011;62123;52.518;10.528;2022-11-04T16:48:17;5.50;;;1.88;;
73793;SDS011;62123;52.518;10.528;2022-11-04T16:50:44;5.10;;;2.10;;
73793;SDS011;62123;52.518;10.528;2022-11-04T16:53:10;5.80;;;1.70;;
73793;SDS011;62123;52.518;10.528;2022-11-04T16:55:39;4.20;;;1.80;;
73793;SDS011;62123;52.518;10.528;2022-11-04T16:58:05;4.50;;;1.87;;
73793;SDS011;62123;52.518;10.528;2022-11-04T17:00:31;5.97;;;2.45;;
73793;SDS011;62123;52.518;10.528;2022-11-04T17:02:58;5.82;;;2.17;;
73793;SDS011;62123;52.518;10.528;2022-11-04T17:05:24;4.73;;;1.93;;
73793;SDS011;62123;52.518;10.528;2022-11-04T17:07:50;5.63;;;2.22;;
73793;SDS011;62123;52.518;10.528;2022-11-04T17:10:16;7.60;;;2.00;;
73793;SDS011;62123;52.518;10.528;2022-11-04T17:12:44;6.07;;;2.22;;
73793;SDS011;62123;52.518;10.528;2022-11-04T17:15:10;6.40;;;1.80;;
73793;SDS011;62123;52.518;10.528;2022-11-04T17:17:36;6.07;;;3.08;;
73793;SDS011;62123;52.518;10.528;2022-11-04T17:20:02;6.77;;;3.23;;
73793;SDS011;62123;52.518;10.528;2022-11-04T17:22:30;6.00;;;3.33;;
73793;SDS011;62123;52.518;10.528;2022-11-04T17:24:59;8.52;;;2.63;;
73793;SDS011;62123;52.518;10.528;2022-11-04T17:27:25;13.00;;;2.05;;
73793;SDS011;62123;52.518;10.528;2022-11-04T17:29:50;13.47;;;2.53;;
73793;SDS011;62123;52.518;10.528;2022-11-04T17:32:16;8.20;;;2.87;;
73793;SDS011;62123;52.518;10.528;2022-11-04T17:34:41;10.88;;;2.70;;
73793;SDS011;62123;52.518;10.528;2022-11-04T17:37:25;7.80;;;2.17;;
73793;SDS011;62123;52.518;10.528;2022-11-04T17:39:50;6.43;;;2.40;;
73793;SDS011;62123;52.518;10.528;2022-11-04T17:42:16;8.60;;;3.00;;
73793;SDS011;62123;52.518;10.528;2022-11-04T17:45:00;7.20;;;2.53;;
73793;SDS011;62123;52.518;10.528;2022-11-04T17:47:25;8.33;;;2.50;;
73793;SDS011;62123;52.518;10.528;2022-11-04T17:49:51;7.47;;;2.90;;
73793;SDS011;62123;52.518;10.528;2022-11-04T17:52:16;9.67;;;4.13;;
73793;SDS011;62123;52.518;10.528;2022-11-04T17:54:42;9.10;;;3.30;;
73793;SDS011;62123;52.518;10.528;2022-11-04T17:57:08;8.17;;;2.30;;
73793;SDS011;62123;52.518;10.528;2022-11-04T17:59:33;10.33;;;2.73;;
73793;SDS011;62123;52.518;10.528;2022-11-04T18:01:59;7.37;;;2.70;;